sensor_id;sensor_type;location;lat;lon;timestamp;P1;durP1;ratioP1;P2;durP2;ratioP2
5959;SDS011;3006;50.956;7.002;2023-12-22T00:01:41;3.30;;;1.20;;
5959;SDS011;3006;50.956;7.002;2023-12-22T00:04:09;2.60;;;1.00;;
5959;SDS011;3006;50.956;7.002;2023-12-22T00:06:37;1.50;;;0.90;;
5959;SDS011;3006;50.956;7.002;2023-12-22T00:09:07;2.10;;;0.90;;
5959;SDS011;3006;50.956;7.002;2023-12-22T00:11:36;1.90;;;0.90;;
5959;SDS011;3006;50.956;7.002;2023-12-22T00:14:05;2.00;;;1.20;;
5959;SDS011;3006;50.956;7.002;2023-12-22T00:16:33;4.73;;;1.10;;
5959;SDS011;3006;50.956;7.002;2023-12-22T00:19:01;1.60;;;1.00;;
5959;SDS011;3006;50.956;7.002;2023-12-22T00:21:29;1.77;;;1.10;;
5959;SDS011;3006;50.956;7.002;2023-12-22T00:23:58;4.90;;;1.20;;
5959;SDS011;3006;50.956;7.002;2023-12-22T00:26:26;2.60;;;1.50;;
5959;SDS011;3006;50.956;7.002;2023-12-22T00:28:55;7.60;;;1.30;;
5959;SDS011;3006;50.956;7.002;2023-12-22T00:31:23;6.33;;;1.50;;
5959;SDS011;3006;50.956;7.002;2023-12-22T00:33:51;10.77;;;1.60;;
5959;SDS011;3006;50.956;7.002;2023-12-22T00:36:20;6.90;;;1.67;;
5959;SDS011;3006;50.956;7.002;2023-12-22T00:38:50;4.00;;;1.73;;
5959;SDS011;3006;50.956;7.002;2023-12-22T00:41:18;3.17;;;1.17;;
5959;SDS011;3006;50.956;7.002;2023-12-22T00:43:46;5.03;;;2.07;;
5959;SDS011;3006;50.956;7.002;2023-12-22T00:46:16;5.60;;;1.23;;
5959;SDS011;3006;50.956;7.002;2023-12-22T00:48:44;4.57;;;1.40;;
5959;SDS011;3006;50.956;7.002;2023-12-22T00:51:12;5.83;;;1.40;;
5959;SDS011;3006;50.956;7.002;2023-12-22T00:53:42;6.67;;;1.20;;
5959;SDS011;3006;50.956;7.002;2023-12-22T00:56:10;6.73;;;1.53;;
5959;SDS011;3006;50.956;7.002;2023-12-22T00:58:39;3.83;;;1.37;;
5959;SDS011;3006;50.956;7.002;2023-12-22T01:01:11;6.40;;;1.57;;
5959;SDS011;3006;50.956;7.002;2023-12-22T01:03:40;4.90;;;1.20;;
5959;SDS011;3006;50.956;7.002;2023-12-22T01:06:08;9.40;;;1.20;;
5959;SDS011;3006;50.956;7.002;2023-12-22T01:08:37;6.37;;;2.00;;
5959;SDS011;3006;50.956;7.002;2023-12-22T01:11:05;7.00;;;1.87;;
5959;SDS011;3006;50.956;7.002;2023-12-22T01:13:33;4.70;;;1.50;;
5959;SDS011;3006;50.956;7.002;2023-12-22T01:16:01;7.83;;;1.40;;
5959;SDS011;3006;50.956;7.002;2023-12-22T01:18:29;11.50;;;1.83;;
5959;SDS011;3006;50.956;7.002;2023-12-22T01:20:59;4.77;;;1.20;;
5959;SDS011;3006;50.956;7.002;2023-12-22T01:23:27;5.20;;;1.50;;
5959;SDS011;3006;50.956;7.002;2023-12-22T01:25:55;6.00;;;1.33;;
5959;SDS011;3006;50.956;7.002;2023-12-22T01:28:24;5.30;;;1.70;;
5959;SDS011;3006;50.956;7.002;2023-12-22T01:30:52;5.47;;;1.73;;
5959;SDS011;3006;50.956;7.002;2023-12-22T01:33:20;5.37;;;1.57;;
5959;SDS011;3006;50.956;7.002;2023-12-22T01:35:48;6.17;;;2.07;;
5959;SDS011;3006;50.956;7.002;2023-12-22T01:38:17;3.33;;;1.70;;
5959;SDS011;3006;50.956;7.002;2023-12-22T01:40:46;13.60;;;1.73;;
5959;SDS011;3006;50.956;7.002;2023-12-22T01:43:14;6.33;;;1.60;;
5959;SDS011;3006;50.956;7.002;2023-12-22T01:45:48;5.13;;;1.67;;
5959;SDS011;3006;50.956;7.002;2023-12-22T01:48:19;8.87;;;1.87;;
5959;SDS011;3006;50.956;7.002;2023-12-22T01:50:48;8.17;;;1.50;;
5959;SDS011;3006;50.956;7.002;2023-12-22T01:53:18;4.33;;;1.53;;
5959;SDS011;3006;50.956;7.002;2023-12-22T01:55:48;7.27;;;1.67;;
5959;SDS011;3006;50.956;7.002;2023-12-22T01:58:18;8.93;;;1.97;;
5959;SDS011;3006;50.956;7.002;2023-12-22T02:00:47;6.90;;;2.03;;
5959;SDS011;3006;50.956;7.002;2023-12-22T02:03:15;4.40;;;1.43;;
5959;SDS011;3006;50.956;7.002;2023-12-22T02:05:44;5.70;;;1.70;;
5959;SDS011;3006;50.956;7.002;2023-12-22T02:08:13;4.30;;;1.50;;
5959;SDS011;3006;50.956;7.002;2023-12-22T02:10:46;3.90;;;1.47;;
5959;SDS011;3006;50.956;7.002;2023-12-22T02:13:14;6.20;;;1.40;;
5959;SDS011;3006;50.956;7.002;2023-12-22T02:15:42;5.90;;;1.87;;
5959;SDS011;3006;50.956;7.002;2023-12-22T02:18:12;4.60;;;1.60;;
5959;SDS011;3006;50.956;7.002;2023-12-22T02:20:45;4.20;;;1.37;;
5959;SDS011;3006;50.956;7.002;2023-12-22T02:23:16;9.93;;;2.20;;
5959;SDS011;3006;50.956;7.002;2023-12-22T02:25:45;8.07;;;2.40;;
5959;SDS011;3006;50.956;7.002;2023-12-22T02:28:13;11.03;;;1.87;;
5959;SDS011;3006;50.956;7.002;2023-12-22T02:30:47;10.57;;;2.10;;
5959;SDS011;3006;50.956;7.002;2023-12-22T02:33:22;5.07;;;1.67;;
5959;SDS011;3006;50.956;7.002;2023-12-22T02:35:51;6.00;;;1.43;;
5959;SDS011;3006;50.956;7.002;2023-12-22T02:38:23;4.50;;;1.80;;
5959;SDS011;3006;50.956;7.002;2023-12-22T02:40:53;5.13;;;1.30;;
5959;SDS011;3006;50.956;7.002;2023-12-22T02:43:22;8.93;;;2.03;;
5959;SDS011;3006;50.956;7.002;2023-12-22T02:45:50;10.47;;;1.80;;
5959;SDS011;3006;50.956;7.002;2023-12-22T02:48:19;8.90;;;2.50;;
5959;SDS011;3006;50.956;7.002;2023-12-22T02:50:47;7.40;;;2.00;;
5959;SDS011;3006;50.956;7.002;2023-12-22T02:53:15;5.83;;;1.63;;
5959;SDS011;3006;50.956;7.002;2023-12-22T02:55:45;7.80;;;2.10;;
5959;SDS011;3006;50.956;7.002;2023-12-22T02:58:13;5.20;;;1.60;;
5959;SDS011;3006;50.956;7.002;2023-12-22T03:00:41;7.27;;;2.70;;
5959;SDS011;3006;50.956;7.002;2023-12-22T03:03:09;7.50;;;1.93;;
5959;SDS011;3006;50.956;7.002;2023-12-22T03:05:37;6.33;;;1.97;;
5959;SDS011;3006;50.956;7.002;2023-12-22T03:08:05;7.80;;;1.90;;
5959;SDS011;3006;50.956;7.002;2023-12-22T03:10:34;9.87;;;2.17;;
5959;SDS011;3006;50.956;7.002;2023-12-22T03:13:03;8.27;;;2.30;;
5959;SDS011;3006;50.956;7.002;2023-12-22T03:15:31;10.00;;;1.77;;
5959;SDS011;3006;50.956;7.002;2023-12-22T03:17:59;9.80;;;2.00;;
5959;SDS011;3006;50.956;7.002;2023-12-22T03:20:28;9.37;;;2.17;;
5959;SDS011;3006;50.956;7.002;2023-12-22T03:22:56;9.13;;;2.17;;
5959;SDS011;3006;50.956;7.002;2023-12-22T03:25:24;8.43;;;2.03;;
5959;SDS011;3006;50.956;7.002;2023-12-22T03:27:52;6.20;;;2.60;;
5959;SDS011;3006;50.956;7.002;2023-12-22T03:30:22;6.53;;;2.27;;
5959;SDS011;3006;50.956;7.002;2023-12-22T03:32:50;6.77;;;2.23;;
5959;SDS011;3006;50.956;7.002;2023-12-22T03:35:18;8.03;;;2.30;;
5959;SDS011;3006;50.956;7.002;2023-12-22T03:37:46;13.00;;;2.50;;
5959;SDS011;3006;50.956;7.002;2023-12-22T03:40:15;7.03;;;1.77;;
5959;SDS011;3006;50.956;7.002;2023-12-22T03:42:43;7.93;;;2.10;;
5959;SDS011;3006;50.956;7.002;2023-12-22T03:45:11;9.37;;;1.90;;
5959;SDS011;3006;50.956;7.002;2023-12-22T03:47:40;12.10;;;2.30;;
5959;SDS011;3006;50.956;7.002;2023-12-22T03:50:09;9.23;;;2.47;;
5959;SDS011;3006;50.956;7.002;2023-12-22T03:52:37;9.03;;;2.50;;
5959;SDS011;3006;50.956;7.002;2023-12-22T03:55:05;6.23;;;2.17;;
5959;SDS011;3006;50.956;7.002;2023-12-22T03:57:34;9.27;;;2.17;;
5959;SDS011;3006;50.956;7.002;2023-12-22T04:00:02;13.80;;;3.90;;
5959;SDS011;3006;50.956;7.002;2023-12-22T04:02:31;6.30;;;2.00;;
5959;SDS011;3006;50.956;7.002;2023-12-22T04:05:01;12.80;;;2.73;;
5959;SDS011;3006;50.956;7.002;2023-12-22T04:07:30;12.83;;;3.20;;
5959;SDS011;3006;50.956;7.002;2023-12-22T04:09:58;16.53;;;2.93;;
5959;SDS011;3006;50.956;7.002;2023-12-22T04:12:26;10.93;;;2.37;;
5959;SDS011;3006;50.956;7.002;2023-12-22T04:14:54;13.20;;;2.33;;
5959;SDS011;3006;50.956;7.002;2023-12-22T04:17:22;7.90;;;2.00;;
5959;SDS011;3006;50.956;7.002;2023-12-22T04:19:50;10.27;;;2.13;;
5959;SDS011;3006;50.956;7.002;2023-12-22T04:22:20;9.33;;;3.00;;
5959;SDS011;3006;50.956;7.002;2023-12-22T04:24:50;12.87;;;2.50;;
5959;SDS011;3006;50.956;7.002;2023-12-22T04:27:18;12.37;;;2.40;;
5959;SDS011;3006;50.956;7.002;2023-12-22T04:29:46;10.77;;;2.23;;
5959;SDS011;3006;50.956;7.002;2023-12-22T04:32:14;9.33;;;1.93;;
5959;SDS011;3006;50.956;7.002;2023-12-22T04:34:42;15.23;;;2.87;;
5959;SDS011;3006;50.956;7.002;2023-12-22T04:37:10;11.80;;;3.40;;
5959;SDS011;3006;50.956;7.002;2023-12-22T04:39:40;9.00;;;2.40;;
5959;SDS011;3006;50.956;7.002;2023-12-22T04:42:08;9.93;;;3.10;;
5959;SDS011;3006;50.956;7.002;2023-12-22T04:44:36;10.47;;;2.97;;
5959;SDS011;3006;50.956;7.002;2023-12-22T04:47:04;10.87;;;3.10;;
5959;SDS011;3006;50.956;7.002;2023-12-22T04:49:32;13.90;;;3.17;;
5959;SDS011;3006;50.956;7.002;2023-12-22T04:52:00;15.43;;;2.60;;
5959;SDS011;3006;50.956;7.002;2023-12-22T04:54:28;13.63;;;2.23;;
5959;SDS011;3006;50.956;7.002;2023-12-22T04:56:58;8.87;;;2.77;;
5959;SDS011;3006;50.956;7.002;2023-12-22T04:59:26;7.60;;;2.90;;
5959;SDS011;3006;50.956;7.002;2023-12-22T05:01:54;15.90;;;3.00;;
5959;SDS011;3006;50.956;7.002;2023-12-22T05:04:22;15.80;;;2.33;;
5959;SDS011;3006;50.956;7.002;2023-12-22T05:06:50;10.60;;;2.70;;
5959;SDS011;3006;50.956;7.002;2023-12-22T05:09:19;10.87;;;2.63;;
5959;SDS011;3006;50.956;7.002;2023-12-22T05:11:47;13.73;;;3.70;;
5959;SDS011;3006;50.956;7.002;2023-12-22T05:14:16;7.87;;;2.37;;
5959;SDS011;3006;50.956;7.002;2023-12-22T05:16:44;9.73;;;3.20;;
5959;SDS011;3006;50.956;7.002;2023-12-22T05:19:12;8.10;;;2.37;;
5959;SDS011;3006;50.956;7.002;2023-12-22T05:21:40;10.60;;;2.53;;
5959;SDS011;3006;50.956;7.002;2023-12-22T05:24:09;13.23;;;2.73;;
5959;SDS011;3006;50.956;7.002;2023-12-22T05:26:37;10.13;;;2.40;;
5959;SDS011;3006;50.956;7.002;2023-12-22T05:29:05;7.37;;;2.37;;
5959;SDS011;3006;50.956;7.002;2023-12-22T05:31:36;20.73;;;3.00;;
5959;SDS011;3006;50.956;7.002;2023-12-22T05:34:06;10.63;;;2.70;;
5959;SDS011;3006;50.956;7.002;2023-12-22T05:36:34;13.87;;;3.50;;
5959;SDS011;3006;50.956;7.002;2023-12-22T05:39:02;18.87;;;2.87;;
5959;SDS011;3006;50.956;7.002;2023-12-22T05:41:32;10.60;;;3.17;;
5959;SDS011;3006;50.956;7.002;2023-12-22T05:44:02;12.47;;;2.93;;
5959;SDS011;3006;50.956;7.002;2023-12-22T05:46:31;11.67;;;3.40;;
5959;SDS011;3006;50.956;7.002;2023-12-22T05:49:05;15.60;;;3.47;;
5959;SDS011;3006;50.956;7.002;2023-12-22T05:51:36;14.27;;;3.30;;
5959;SDS011;3006;50.956;7.002;2023-12-22T05:54:05;12.80;;;2.83;;
5959;SDS011;3006;50.956;7.002;2023-12-22T05:56:34;16.10;;;2.90;;
5959;SDS011;3006;50.956;7.002;2023-12-22T05:59:02;16.47;;;3.50;;
5959;SDS011;3006;50.956;7.002;2023-12-22T06:01:32;12.83;;;3.33;;
5959;SDS011;3006;50.956;7.002;2023-12-22T06:04:01;11.53;;;2.80;;
5959;SDS011;3006;50.956;7.002;2023-12-22T06:06:29;13.03;;;4.20;;
5959;SDS011;3006;50.956;7.002;2023-12-22T06:08:58;10.70;;;2.60;;
5959;SDS011;3006;50.956;7.002;2023-12-22T06:11:26;17.60;;;2.63;;
5959;SDS011;3006;50.956;7.002;2023-12-22T06:13:54;14.67;;;3.07;;
5959;SDS011;3006;50.956;7.002;2023-12-22T06:16:22;10.90;;;2.93;;
5959;SDS011;3006;50.956;7.002;2023-12-22T06:18:50;12.97;;;3.00;;
5959;SDS011;3006;50.956;7.002;2023-12-22T06:21:20;10.47;;;2.67;;
5959;SDS011;3006;50.956;7.002;2023-12-22T06:23:48;18.50;;;3.83;;
5959;SDS011;3006;50.956;7.002;2023-12-22T06:26:16;11.10;;;2.80;;
5959;SDS011;3006;50.956;7.002;2023-12-22T06:28:44;19.67;;;3.03;;
5959;SDS011;3006;50.956;7.002;2023-12-22T06:31:16;15.13;;;3.40;;
5959;SDS011;3006;50.956;7.002;2023-12-22T06:33:46;14.43;;;3.83;;
5959;SDS011;3006;50.956;7.002;2023-12-22T06:36:20;15.23;;;3.07;;
5959;SDS011;3006;50.956;7.002;2023-12-22T06:38:49;13.20;;;2.63;;
5959;SDS011;3006;50.956;7.002;2023-12-22T06:41:18;14.67;;;3.27;;
5959;SDS011;3006;50.956;7.002;2023-12-22T06:43:52;10.20;;;2.80;;
5959;SDS011;3006;50.956;7.002;2023-12-22T06:46:21;12.37;;;3.20;;
5959;SDS011;3006;50.956;7.002;2023-12-22T06:48:53;10.43;;;2.90;;
5959;SDS011;3006;50.956;7.002;2023-12-22T06:51:23;11.50;;;2.63;;
5959;SDS011;3006;50.956;7.002;2023-12-22T06:53:54;10.90;;;2.97;;
5959;SDS011;3006;50.956;7.002;2023-12-22T06:56:23;10.97;;;2.77;;
5959;SDS011;3006;50.956;7.002;2023-12-22T06:58:52;10.93;;;2.63;;
5959;SDS011;3006;50.956;7.002;2023-12-22T07:01:24;7.83;;;2.80;;
5959;SDS011;3006;50.956;7.002;2023-12-22T07:03:54;14.07;;;3.00;;
5959;SDS011;3006;50.956;7.002;2023-12-22T07:06:24;5.40;;;1.77;;
5959;SDS011;3006;50.956;7.002;2023-12-22T07:08:57;5.20;;;1.20;;
5959;SDS011;3006;50.956;7.002;2023-12-22T07:11:55;6.93;;;1.10;;
5959;SDS011;3006;50.956;7.002;2023-12-22T07:14:23;4.73;;;1.43;;
5959;SDS011;3006;50.956;7.002;2023-12-22T07:16:51;5.10;;;1.60;;
5959;SDS011;3006;50.956;7.002;2023-12-22T07:19:20;5.93;;;1.17;;
5959;SDS011;3006;50.956;7.002;2023-12-22T07:21:50;4.73;;;1.17;;
5959;SDS011;3006;50.956;7.002;2023-12-22T07:24:18;4.50;;;1.73;;
5959;SDS011;3006;50.956;7.002;2023-12-22T07:26:46;5.20;;;1.60;;
5959;SDS011;3006;50.956;7.002;2023-12-22T07:29:14;5.33;;;1.50;;
5959;SDS011;3006;50.956;7.002;2023-12-22T07:31:42;8.27;;;2.03;;
5959;SDS011;3006;50.956;7.002;2023-12-22T07:34:12;7.47;;;2.03;;
5959;SDS011;3006;50.956;7.002;2023-12-22T07:36:41;9.03;;;2.27;;
5959;SDS011;3006;50.956;7.002;2023-12-22T07:39:21;7.10;;;2.73;;
5959;SDS011;3006;50.956;7.002;2023-12-22T07:41:49;7.00;;;2.50;;
5959;SDS011;3006;50.956;7.002;2023-12-22T07:44:18;9.73;;;2.53;;
5959;SDS011;3006;50.956;7.002;2023-12-22T07:46:49;6.03;;;1.67;;
5959;SDS011;3006;50.956;7.002;2023-12-22T07:49:24;9.87;;;1.90;;
5959;SDS011;3006;50.956;7.002;2023-12-22T07:51:52;5.83;;;2.00;;
5959;SDS011;3006;50.956;7.002;2023-12-22T07:54:22;5.53;;;1.87;;
5959;SDS011;3006;50.956;7.002;2023-12-22T07:56:51;9.33;;;1.97;;
5959;SDS011;3006;50.956;7.002;2023-12-22T07:59:19;11.77;;;1.47;;
5959;SDS011;3006;50.956;7.002;2023-12-22T08:01:57;6.93;;;1.60;;
5959;SDS011;3006;50.956;7.002;2023-12-22T08:04:26;8.73;;;2.57;;
5959;SDS011;3006;50.956;7.002;2023-12-22T08:06:54;9.83;;;2.57;;
5959;SDS011;3006;50.956;7.002;2023-12-22T08:09:24;9.37;;;2.10;;
5959;SDS011;3006;50.956;7.002;2023-12-22T08:11:52;6.67;;;3.00;;
5959;SDS011;3006;50.956;7.002;2023-12-22T08:14:22;14.93;;;3.43;;
5959;SDS011;3006;50.956;7.002;2023-12-22T08:16:50;15.50;;;4.30;;
5959;SDS011;3006;50.956;7.002;2023-12-22T08:19:18;14.53;;;3.90;;
5959;SDS011;3006;50.956;7.002;2023-12-22T08:21:48;15.17;;;3.70;;
5959;SDS011;3006;50.956;7.002;2023-12-22T08:24:18;20.37;;;4.77;;
5959;SDS011;3006;50.956;7.002;2023-12-22T08:26:50;7.67;;;2.93;;
5959;SDS011;3006;50.956;7.002;2023-12-22T08:29:18;14.60;;;3.80;;
5959;SDS011;3006;50.956;7.002;2023-12-22T08:31:46;14.43;;;3.87;;
5959;SDS011;3006;50.956;7.002;2023-12-22T08:34:15;14.10;;;5.43;;
5959;SDS011;3006;50.956;7.002;2023-12-22T08:36:43;21.57;;;6.13;;
5959;SDS011;3006;50.956;7.002;2023-12-22T08:39:12;20.90;;;5.27;;
5959;SDS011;3006;50.956;7.002;2023-12-22T08:41:41;23.60;;;5.30;;
5959;SDS011;3006;50.956;7.002;2023-12-22T08:44:11;15.00;;;4.93;;
5959;SDS011;3006;50.956;7.002;2023-12-22T08:46:41;22.00;;;6.97;;
5959;SDS011;3006;50.956;7.002;2023-12-22T08:49:09;27.73;;;7.00;;
5959;SDS011;3006;50.956;7.002;2023-12-22T08:51:38;21.87;;;5.13;;
5959;SDS011;3006;50.956;7.002;2023-12-22T08:54:06;19.80;;;4.80;;
5959;SDS011;3006;50.956;7.002;2023-12-22T08:56:34;18.60;;;4.20;;
5959;SDS011;3006;50.956;7.002;2023-12-22T08:59:02;31.83;;;5.20;;
5959;SDS011;3006;50.956;7.002;2023-12-22T09:01:32;24.73;;;4.73;;
5959;SDS011;3006;50.956;7.002;2023-12-22T09:04:00;16.70;;;5.23;;
5959;SDS011;3006;50.956;7.002;2023-12-22T09:06:28;20.83;;;4.13;;
5959;SDS011;3006;50.956;7.002;2023-12-22T09:08:56;13.97;;;4.87;;
5959;SDS011;3006;50.956;7.002;2023-12-22T09:11:25;19.03;;;4.60;;
5959;SDS011;3006;50.956;7.002;2023-12-22T09:13:53;13.00;;;4.60;;
5959;SDS011;3006;50.956;7.002;2023-12-22T09:16:21;19.70;;;4.43;;
5959;SDS011;3006;50.956;7.002;2023-12-22T09:18:53;22.50;;;4.37;;
5959;SDS011;3006;50.956;7.002;2023-12-22T09:21:21;17.03;;;4.83;;
5959;SDS011;3006;50.956;7.002;2023-12-22T09:23:49;14.93;;;3.40;;
5959;SDS011;3006;50.956;7.002;2023-12-22T09:26:17;17.07;;;4.50;;
5959;SDS011;3006;50.956;7.002;2023-12-22T09:28:46;24.40;;;5.47;;
5959;SDS011;3006;50.956;7.002;2023-12-22T09:31:14;16.20;;;4.40;;
5959;SDS011;3006;50.956;7.002;2023-12-22T09:33:42;19.57;;;4.57;;
5959;SDS011;3006;50.956;7.002;2023-12-22T09:36:12;20.10;;;4.47;;
5959;SDS011;3006;50.956;7.002;2023-12-22T09:38:40;16.63;;;4.23;;
5959;SDS011;3006;50.956;7.002;2023-12-22T09:41:10;17.90;;;5.57;;
5959;SDS011;3006;50.956;7.002;2023-12-22T09:43:38;20.50;;;4.83;;
5959;SDS011;3006;50.956;7.002;2023-12-22T09:46:07;17.60;;;3.90;;
5959;SDS011;3006;50.956;7.002;2023-12-22T09:48:38;23.70;;;5.07;;
5959;SDS011;3006;50.956;7.002;2023-12-22T09:51:07;18.53;;;4.00;;
5959;SDS011;3006;50.956;7.002;2023-12-22T09:53:37;16.33;;;4.20;;
5959;SDS011;3006;50.956;7.002;2023-12-22T09:56:07;12.90;;;3.90;;
5959;SDS011;3006;50.956;7.002;2023-12-22T09:58:36;16.10;;;3.90;;
5959;SDS011;3006;50.956;7.002;2023-12-22T10:01:05;13.83;;;4.10;;
5959;SDS011;3006;50.956;7.002;2023-12-22T10:03:35;14.80;;;4.00;;
5959;SDS011;3006;50.956;7.002;2023-12-22T10:06:05;14.37;;;3.97;;
5959;SDS011;3006;50.956;7.002;2023-12-22T10:08:33;13.13;;;4.10;;
5959;SDS011;3006;50.956;7.002;2023-12-22T10:11:08;18.23;;;2.90;;
5959;SDS011;3006;50.956;7.002;2023-12-22T10:13:37;11.77;;;3.20;;
5959;SDS011;3006;50.956;7.002;2023-12-22T10:16:08;7.10;;;3.03;;
5959;SDS011;3006;50.956;7.002;2023-12-22T10:18:36;9.90;;;3.30;;
5959;SDS011;3006;50.956;7.002;2023-12-22T10:21:05;8.10;;;2.93;;
5959;SDS011;3006;50.956;7.002;2023-12-22T10:23:36;4.37;;;2.33;;
5959;SDS011;3006;50.956;7.002;2023-12-22T10:26:04;7.27;;;2.50;;
5959;SDS011;3006;50.956;7.002;2023-12-22T10:28:36;4.80;;;2.10;;
5959;SDS011;3006;50.956;7.002;2023-12-22T10:31:04;5.80;;;1.90;;
5959;SDS011;3006;50.956;7.002;2023-12-22T10:33:33;4.30;;;1.70;;
5959;SDS011;3006;50.956;7.002;2023-12-22T10:36:02;4.60;;;2.33;;
5959;SDS011;3006;50.956;7.002;2023-12-22T10:38:32;4.97;;;2.00;;
5959;SDS011;3006;50.956;7.002;2023-12-22T10:41:01;4.17;;;1.73;;
5959;SDS011;3006;50.956;7.002;2023-12-22T10:43:29;4.33;;;1.93;;
5959;SDS011;3006;50.956;7.002;2023-12-22T10:45:59;4.30;;;2.37;;
5959;SDS011;3006;50.956;7.002;2023-12-22T10:48:28;4.73;;;1.90;;
5959;SDS011;3006;50.956;7.002;2023-12-22T10:50:57;7.53;;;2.00;;
5959;SDS011;3006;50.956;7.002;2023-12-22T10:53:25;3.33;;;1.80;;
5959;SDS011;3006;50.956;7.002;2023-12-22T10:55:53;4.77;;;2.00;;
5959;SDS011;3006;50.956;7.002;2023-12-22T10:58:22;3.00;;;1.97;;
5959;SDS011;3006;50.956;7.002;2023-12-22T11:00:50;5.20;;;2.30;;
5959;SDS011;3006;50.956;7.002;2023-12-22T11:03:21;2.37;;;1.90;;
5959;SDS011;3006;50.956;7.002;2023-12-22T11:05:53;7.40;;;1.93;;
5959;SDS011;3006;50.956;7.002;2023-12-22T11:08:25;3.63;;;1.93;;
5959;SDS011;3006;50.956;7.002;2023-12-22T11:10:57;2.70;;;1.73;;
5959;SDS011;3006;50.956;7.002;2023-12-22T11:13:31;2.70;;;1.60;;
5959;SDS011;3006;50.956;7.002;2023-12-22T11:16:01;4.00;;;2.17;;
5959;SDS011;3006;50.956;7.002;2023-12-22T11:18:30;2.90;;;1.97;;
5959;SDS011;3006;50.956;7.002;2023-12-22T11:21:01;6.27;;;1.50;;
5959;SDS011;3006;50.956;7.002;2023-12-22T11:23:33;3.10;;;1.60;;
5959;SDS011;3006;50.956;7.002;2023-12-22T11:26:03;3.63;;;1.60;;
5959;SDS011;3006;50.956;7.002;2023-12-22T11:28:33;4.50;;;1.80;;
5959;SDS011;3006;50.956;7.002;2023-12-22T11:31:02;2.73;;;1.63;;
5959;SDS011;3006;50.956;7.002;2023-12-22T11:33:32;6.40;;;2.00;;
5959;SDS011;3006;50.956;7.002;2023-12-22T11:36:04;5.40;;;1.83;;
5959;SDS011;3006;50.956;7.002;2023-12-22T11:38:37;2.70;;;1.87;;
5959;SDS011;3006;50.956;7.002;2023-12-22T11:41:05;2.57;;;1.73;;
5959;SDS011;3006;50.956;7.002;2023-12-22T11:43:37;6.90;;;2.13;;
5959;SDS011;3006;50.956;7.002;2023-12-22T11:46:05;3.33;;;1.90;;
5959;SDS011;3006;50.956;7.002;2023-12-22T11:48:35;3.47;;;1.70;;
5959;SDS011;3006;50.956;7.002;2023-12-22T11:51:11;4.13;;;1.90;;
5959;SDS011;3006;50.956;7.002;2023-12-22T11:53:41;4.70;;;2.53;;
5959;SDS011;3006;50.956;7.002;2023-12-22T11:56:09;2.97;;;1.37;;
5959;SDS011;3006;50.956;7.002;2023-12-22T11:58:39;4.70;;;1.53;;
5959;SDS011;3006;50.956;7.002;2023-12-22T12:01:09;1.97;;;1.60;;
5959;SDS011;3006;50.956;7.002;2023-12-22T12:03:42;2.23;;;1.60;;
5959;SDS011;3006;50.956;7.002;2023-12-22T12:06:16;4.70;;;1.50;;
5959;SDS011;3006;50.956;7.002;2023-12-22T12:08:49;5.77;;;1.53;;
5959;SDS011;3006;50.956;7.002;2023-12-22T12:11:18;3.00;;;1.83;;
5959;SDS011;3006;50.956;7.002;2023-12-22T12:13:46;3.07;;;1.70;;
5959;SDS011;3006;50.956;7.002;2023-12-22T12:16:18;2.33;;;1.40;;
5959;SDS011;3006;50.956;7.002;2023-12-22T12:18:49;3.63;;;1.50;;
5959;SDS011;3006;50.956;7.002;2023-12-22T12:21:22;4.33;;;1.30;;
5959;SDS011;3006;50.956;7.002;2023-12-22T12:23:51;2.83;;;1.53;;
5959;SDS011;3006;50.956;7.002;2023-12-22T12:26:20;5.27;;;1.90;;
5959;SDS011;3006;50.956;7.002;2023-12-22T12:28:48;4.13;;;1.37;;
5959;SDS011;3006;50.956;7.002;2023-12-22T12:31:17;2.20;;;1.37;;
5959;SDS011;3006;50.956;7.002;2023-12-22T12:33:45;3.33;;;1.40;;
5959;SDS011;3006;50.956;7.002;2023-12-22T12:36:16;4.57;;;2.03;;
5959;SDS011;3006;50.956;7.002;2023-12-22T12:38:48;3.77;;;1.70;;
5959;SDS011;3006;50.956;7.002;2023-12-22T12:41:23;2.70;;;1.67;;
5959;SDS011;3006;50.956;7.002;2023-12-22T12:44:00;3.70;;;1.50;;
5959;SDS011;3006;50.956;7.002;2023-12-22T12:46:32;1.90;;;1.40;;
5959;SDS011;3006;50.956;7.002;2023-12-22T12:49:03;5.07;;;1.70;;
5959;SDS011;3006;50.956;7.002;2023-12-22T12:51:36;2.93;;;1.53;;
5959;SDS011;3006;50.956;7.002;2023-12-22T12:54:06;5.40;;;1.50;;
5959;SDS011;3006;50.956;7.002;2023-12-22T12:56:40;2.20;;;1.10;;
5959;SDS011;3006;50.956;7.002;2023-12-22T12:59:10;9.03;;;2.40;;
5959;SDS011;3006;50.956;7.002;2023-12-22T13:01:39;3.00;;;1.60;;
5959;SDS011;3006;50.956;7.002;2023-12-22T13:04:08;5.37;;;1.93;;
5959;SDS011;3006;50.956;7.002;2023-12-22T13:06:43;4.40;;;1.93;;
5959;SDS011;3006;50.956;7.002;2023-12-22T13:09:12;4.43;;;1.53;;
5959;SDS011;3006;50.956;7.002;2023-12-22T13:11:41;2.60;;;1.70;;
5959;SDS011;3006;50.956;7.002;2023-12-22T13:14:10;4.30;;;1.97;;
5959;SDS011;3006;50.956;7.002;2023-12-22T13:16:39;6.13;;;1.97;;
5959;SDS011;3006;50.956;7.002;2023-12-22T13:19:07;4.97;;;2.00;;
5959;SDS011;3006;50.956;7.002;2023-12-22T13:21:36;5.70;;;2.13;;
5959;SDS011;3006;50.956;7.002;2023-12-22T13:24:09;4.33;;;1.37;;
5959;SDS011;3006;50.956;7.002;2023-12-22T13:26:38;4.10;;;2.00;;
5959;SDS011;3006;50.956;7.002;2023-12-22T13:29:07;10.53;;;1.97;;
5959;SDS011;3006;50.956;7.002;2023-12-22T13:31:37;2.80;;;1.30;;
5959;SDS011;3006;50.956;7.002;2023-12-22T13:34:09;7.33;;;1.80;;
5959;SDS011;3006;50.956;7.002;2023-12-22T13:36:37;4.30;;;1.60;;
5959;SDS011;3006;50.956;7.002;2023-12-22T13:39:06;4.83;;;1.57;;
5959;SDS011;3006;50.956;7.002;2023-12-22T13:41:37;5.43;;;1.90;;
5959;SDS011;3006;50.956;7.002;2023-12-22T13:44:07;2.97;;;1.60;;
5959;SDS011;3006;50.956;7.002;2023-12-22T13:46:35;6.43;;;1.67;;
5959;SDS011;3006;50.956;7.002;2023-12-22T13:49:06;5.37;;;1.70;;
5959;SDS011;3006;50.956;7.002;2023-12-22T13:51:39;4.60;;;1.73;;
5959;SDS011;3006;50.956;7.002;2023-12-22T13:54:09;6.67;;;2.40;;
5959;SDS011;3006;50.956;7.002;2023-12-22T13:56:38;4.07;;;1.50;;
5959;SDS011;3006;50.956;7.002;2023-12-22T13:59:08;2.73;;;1.80;;
5959;SDS011;3006;50.956;7.002;2023-12-22T14:01:37;4.67;;;2.10;;
5959;SDS011;3006;50.956;7.002;2023-12-22T14:04:07;5.40;;;1.53;;
5959;SDS011;3006;50.956;7.002;2023-12-22T14:06:36;3.50;;;1.63;;
5959;SDS011;3006;50.956;7.002;2023-12-22T14:09:05;6.27;;;2.60;;
5959;SDS011;3006;50.956;7.002;2023-12-22T14:11:35;3.73;;;2.03;;
5959;SDS011;3006;50.956;7.002;2023-12-22T14:14:09;4.00;;;2.03;;
5959;SDS011;3006;50.956;7.002;2023-12-22T14:16:39;4.83;;;1.67;;
5959;SDS011;3006;50.956;7.002;2023-12-22T14:19:07;4.00;;;1.60;;
5959;SDS011;3006;50.956;7.002;2023-12-22T14:21:35;4.43;;;1.80;;
5959;SDS011;3006;50.956;7.002;2023-12-22T14:24:03;4.40;;;2.40;;
5959;SDS011;3006;50.956;7.002;2023-12-22T14:26:32;3.27;;;1.60;;
5959;SDS011;3006;50.956;7.002;2023-12-22T14:29:01;5.93;;;2.00;;
5959;SDS011;3006;50.956;7.002;2023-12-22T14:31:30;6.93;;;2.17;;
5959;SDS011;3006;50.956;7.002;2023-12-22T14:34:00;3.47;;;1.70;;
5959;SDS011;3006;50.956;7.002;2023-12-22T14:36:28;4.30;;;1.73;;
5959;SDS011;3006;50.956;7.002;2023-12-22T14:38:56;4.80;;;1.50;;
5959;SDS011;3006;50.956;7.002;2023-12-22T14:41:24;7.87;;;2.20;;
5959;SDS011;3006;50.956;7.002;2023-12-22T14:43:55;3.97;;;1.60;;
5959;SDS011;3006;50.956;7.002;2023-12-22T14:46:26;7.20;;;2.00;;
5959;SDS011;3006;50.956;7.002;2023-12-22T14:48:55;4.00;;;1.90;;
5959;SDS011;3006;50.956;7.002;2023-12-22T14:51:23;6.73;;;1.73;;
5959;SDS011;3006;50.956;7.002;2023-12-22T14:53:51;5.60;;;1.50;;
5959;SDS011;3006;50.956;7.002;2023-12-22T14:56:19;5.80;;;1.63;;
5959;SDS011;3006;50.956;7.002;2023-12-22T14:58:48;7.00;;;1.67;;
5959;SDS011;3006;50.956;7.002;2023-12-22T15:01:16;3.43;;;1.40;;
5959;SDS011;3006;50.956;7.002;2023-12-22T15:03:45;3.93;;;1.80;;
5959;SDS011;3006;50.956;7.002;2023-12-22T15:06:14;8.53;;;2.17;;
5959;SDS011;3006;50.956;7.002;2023-12-22T15:08:42;5.57;;;2.03;;
5959;SDS011;3006;50.956;7.002;2023-12-22T15:11:11;3.33;;;1.33;;
5959;SDS011;3006;50.956;7.002;2023-12-22T15:13:39;8.93;;;2.13;;
5959;SDS011;3006;50.956;7.002;2023-12-22T15:16:08;5.20;;;1.43;;
5959;SDS011;3006;50.956;7.002;2023-12-22T15:18:36;3.63;;;1.50;;
5959;SDS011;3006;50.956;7.002;2023-12-22T15:21:06;2.57;;;1.10;;
5959;SDS011;3006;50.956;7.002;2023-12-22T15:23:34;3.37;;;1.47;;